sensor_id;sensor_type;location;lat;lon;timestamp;temperature;humidity
35240;DHT22;21376;50.954;4.716;2024-03-06T00:04:56;6.20;99.90
35240;DHT22;21376;50.954;4.716;2024-03-06T00:07:49;6.20;99.90
35240;DHT22;21376;50.954;4.716;2024-03-06T00:10:18;6.30;99.90
35240;DHT22;21376;50.954;4.716;2024-03-06T00:12:47;6.30;99.90
35240;DHT22;21376;50.954;4.716;2024-03-06T00:15:17;6.10;99.90
35240;DHT22;21376;50.954;4.716;2024-03-06T00:17:46;6.10;99.90
35240;DHT22;21376;50.954;4.716;2024-03-06T00:20:15;6.10;99.90
35240;DHT22;21376;50.954;4.716;2024-03-06T00:26:00;6.00;99.90
35240;DHT22;21376;50.954;4.716;2024-03-06T00:28:51;6.20;99.90
35240;DHT22;21376;50.954;4.716;2024-03-06T00:31:23;6.30;99.90
35240;DHT22;21376;50.954;4.716;2024-03-06T00:33:52;6.20;99.90
35240;DHT22;21376;50.954;4.716;2024-03-06T00:36:20;6.40;99.90
35240;DHT22;21376;50.954;4.716;2024-03-06T00:38:46;6.20;99.90
35240;DHT22;21376;50.954;4.716;2024-03-06T00:41:14;6.30;99.90
35240;DHT22;21376;50.954;4.716;2024-03-06T00:43:43;6.20;99.90
35240;DHT22;21376;50.954;4.716;2024-03-06T00:46:09;6.10;99.90
35240;DHT22;21376;50.954;4.716;2024-03-06T00:48:38;6.10;99.90
35240;DHT22;21376;50.954;4.716;2024-03-06T00:51:19;6.10;99.90
35240;DHT22;21376;50.954;4.716;2024-03-06T00:53:46;6.20;99.90
35240;DHT22;21376;50.954;4.716;2024-03-06T00:56:14;6.00;99.90
35240;DHT22;21376;50.954;4.716;2024-03-06T00:58:43;5.90;99.90
35240;DHT22;21376;50.954;4.716;2024-03-06T01:01:12;6.00;99.90
35240;DHT22;21376;50.954;4.716;2024-03-06T01:03:38;5.90;99.90
35240;DHT22;21376;50.954;4.716;2024-03-06T01:06:04;5.90;99.90
35240;DHT22;21376;50.954;4.716;2024-03-06T01:08:33;5.90;99.90
35240;DHT22;21376;50.954;4.716;2024-03-06T01:11:02;6.00;99.90
35240;DHT22;21376;50.954;4.716;2024-03-06T01:13:28;5.90;99.90
35240;DHT22;21376;50.954;4.716;2024-03-06T01:15:57;6.00;99.90
35240;DHT22;21376;50.954;4.716;2024-03-06T01:18:25;6.20;99.90
35240;DHT22;21376;50.954;4.716;2024-03-06T01:20:54;6.00;99.90
35240;DHT22;21376;50.954;4.716;2024-03-06T01:26:44;5.90;99.90
35240;DHT22;21376;50.954;4.716;2024-03-06T01:29:19;5.80;99.90
35240;DHT22;21376;50.954;4.716;2024-03-06T01:31:48;5.80;99.90
35240;DHT22;21376;50.954;4.716;2024-03-06T01:34:17;5.80;99.90
35240;DHT22;21376;50.954;4.716;2024-03-06T01:36:44;5.80;99.90
35240;DHT22;21376;50.954;4.716;2024-03-06T01:39:13;5.80;99.90
35240;DHT22;21376;50.954;4.716;2024-03-06T01:41:50;5.70;99.90
35240;DHT22;21376;50.954;4.716;2024-03-06T01:44:19;5.70;99.90
35240;DHT22;21376;50.954;4.716;2024-03-06T01:46:47;5.80;99.90
35240;DHT22;21376;50.954;4.716;2024-03-06T01:49:16;5.80;99.90
35240;DHT22;21376;50.954;4.716;2024-03-06T01:51:51;5.90;99.90
35240;DHT22;21376;50.954;4.716;2024-03-06T01:54:20;5.70;99.90
35240;DHT22;21376;50.954;4.716;2024-03-06T01:56:50;5.60;99.90
35240;DHT22;21376;50.954;4.716;2024-03-06T01:59:21;5.40;99.90
35240;DHT22;21376;50.954;4.716;2024-03-06T02:01:50;5.50;99.90
35240;DHT22;21376;50.954;4.716;2024-03-06T02:04:24;5.30;99.90
35240;DHT22;21376;50.954;4.716;2024-03-06T02:07:08;5.70;99.90
35240;DHT22;21376;50.954;4.716;2024-03-06T02:12:53;5.30;99.90
35240;DHT22;21376;50.954;4.716;2024-03-06T02:18:35;5.10;99.90
35240;DHT22;21376;50.954;4.716;2024-03-06T02:21:05;5.20;99.90
35240;DHT22;21376;50.954;4.716;2024-03-06T02:23:36;5.10;99.90
35240;DHT22;21376;50.954;4.716;2024-03-06T02:26:23;4.80;99.90
35240;DHT22;21376;50.954;4.716;2024-03-06T02:28:54;4.60;99.90
35240;DHT22;21376;50.954;4.716;2024-03-06T02:31:26;4.80;99.90
35240;DHT22;21376;50.954;4.716;2024-03-06T02:33:55;4.90;99.90
35240;DHT22;21376;50.954;4.716;2024-03-06T02:36:21;4.90;99.90
35240;DHT22;21376;50.954;4.716;2024-03-06T02:38:50;4.80;99.90
35240;DHT22;21376;50.954;4.716;2024-03-06T02:41:22;4.60;99.90
35240;DHT22;21376;50.954;4.716;2024-03-06T02:43:51;4.50;99.90
35240;DHT22;21376;50.954;4.716;2024-03-06T02:46:32;4.50;99.90
35240;DHT22;21376;50.954;4.716;2024-03-06T02:49:01;4.40;99.90
35240;DHT22;21376;50.954;4.716;2024-03-06T02:51:27;4.30;99.90
35240;DHT22;21376;50.954;4.716;2024-03-06T02:53:56;4.50;99.90
35240;DHT22;21376;50.954;4.716;2024-03-06T02:59:45;4.40;99.90
35240;DHT22;21376;50.954;4.716;2024-03-06T03:02:14;4.50;99.90
35240;DHT22;21376;50.954;4.716;2024-03-06T03:04:43;4.70;99.90
35240;DHT22;21376;50.954;4.716;2024-03-06T03:07:12;4.70;99.90
35240;DHT22;21376;50.954;4.716;2024-03-06T03:09:43;4.50;99.90
35240;DHT22;21376;50.954;4.716;2024-03-06T03:12:12;4.40;99.90
35240;DHT22;21376;50.954;4.716;2024-03-06T03:14:41;4.30;99.90
35240;DHT22;21376;50.954;4.716;2024-03-06T03:17:13;4.50;99.90
35240;DHT22;21376;50.954;4.716;2024-03-06T03:19:43;4.50;99.90
35240;DHT22;21376;50.954;4.716;2024-03-06T03:22:37;4.30;99.90
35240;DHT22;21376;50.954;4.716;2024-03-06T03:25:27;4.10;99.90
35240;DHT22;21376;50.954;4.716;2024-03-06T03:27:59;4.00;99.90
35240;DHT22;21376;50.954;4.716;2024-03-06T03:30:30;4.00;99.90
35240;DHT22;21376;50.954;4.716;2024-03-06T03:32:58;3.90;99.90
35240;DHT22;21376;50.954;4.716;2024-03-06T03:35:26;4.10;99.90
35240;DHT22;21376;50.954;4.716;2024-03-06T03:37:55;4.00;99.90
35240;DHT22;21376;50.954;4.716;2024-03-06T03:40:51;3.80;99.90
35240;DHT22;21376;50.954;4.716;2024-03-06T03:43:20;3.70;99.90
35240;DHT22;21376;50.954;4.716;2024-03-06T03:45:49;3.60;99.90
35240;DHT22;21376;50.954;4.716;2024-03-06T03:48:18;3.60;99.90
35240;DHT22;21376;50.954;4.716;2024-03-06T03:50:44;3.40;99.90
35240;DHT22;21376;50.954;4.716;2024-03-06T03:53:11;3.50;99.90
35240;DHT22;21376;50.954;4.716;2024-03-06T03:55:40;3.30;99.90
35240;DHT22;21376;50.954;4.716;2024-03-06T03:58:08;3.20;99.90
35240;DHT22;21376;50.954;4.716;2024-03-06T04:00:34;3.20;99.90
35240;DHT22;21376;50.954;4.716;2024-03-06T04:03:03;3.20;99.90
35240;DHT22;21376;50.954;4.716;2024-03-06T04:05:33;3.10;99.90
35240;DHT22;21376;50.954;4.716;2024-03-06T04:08:05;3.20;99.90
35240;DHT22;21376;50.954;4.716;2024-03-06T04:10:35;3.20;99.90
35240;DHT22;21376;50.954;4.716;2024-03-06T04:13:03;3.40;99.90
35240;DHT22;21376;50.954;4.716;2024-03-06T04:18:30;3.10;99.90
35240;DHT22;21376;50.954;4.716;2024-03-06T04:21:05;3.00;99.90
35240;DHT22;21376;50.954;4.716;2024-03-06T04:23:53;3.00;99.90
35240;DHT22;21376;50.954;4.716;2024-03-06T04:26:22;3.00;99.90
35240;DHT22;21376;50.954;4.716;2024-03-06T04:28:59;3.20;99.90
35240;DHT22;21376;50.954;4.716;2024-03-06T04:31:25;3.00;99.90
35240;DHT22;21376;50.954;4.716;2024-03-06T04:33:51;3.00;99.90
35240;DHT22;21376;50.954;4.716;2024-03-06T04:36:20;2.90;99.90
35240;DHT22;21376;50.954;4.716;2024-03-06T04:38:47;3.00;99.90
35240;DHT22;21376;50.954;4.716;2024-03-06T04:41:18;2.90;99.90
35240;DHT22;21376;50.954;4.716;2024-03-06T04:43:48;2.90;99.90
35240;DHT22;21376;50.954;4.716;2024-03-06T04:46:40;2.90;99.90
35240;DHT22;21376;50.954;4.716;2024-03-06T04:49:11;2.70;99.90
35240;DHT22;21376;50.954;4.716;2024-03-06T04:51:40;2.80;99.90
35240;DHT22;21376;50.954;4.716;2024-03-06T04:54:17;2.60;99.90
35240;DHT22;21376;50.954;4.716;2024-03-06T04:56:43;2.60;99.90
35240;DHT22;21376;50.954;4.716;2024-03-06T04:59:17;2.70;99.90
35240;DHT22;21376;50.954;4.716;2024-03-06T05:01:42;2.70;99.90
35240;DHT22;21376;50.954;4.716;2024-03-06T05:04:29;2.60;99.90
35240;DHT22;21376;50.954;4.716;2024-03-06T05:06:57;2.40;99.90
35240;DHT22;21376;50.954;4.716;2024-03-06T05:09:26;2.40;99.90
35240;DHT22;21376;50.954;4.716;2024-03-06T05:11:55;2.50;99.90
35240;DHT22;21376;50.954;4.716;2024-03-06T05:14:26;2.50;99.90
35240;DHT22;21376;50.954;4.716;2024-03-06T05:16:52;2.30;99.90
35240;DHT22;21376;50.954;4.716;2024-03-06T05:22:21;2.30;99.90
35240;DHT22;21376;50.954;4.716;2024-03-06T05:24:50;2.70;99.90
35240;DHT22;21376;50.954;4.716;2024-03-06T05:27:18;2.70;99.90
35240;DHT22;21376;50.954;4.716;2024-03-06T05:29:47;2.60;99.90
35240;DHT22;21376;50.954;4.716;2024-03-06T05:32:16;2.60;99.90
35240;DHT22;21376;50.954;4.716;2024-03-06T05:34:44;2.60;99.90
35240;DHT22;21376;50.954;4.716;2024-03-06T05:37:13;2.50;99.90
35240;DHT22;21376;50.954;4.716;2024-03-06T05:43:01;2.30;99.90
35240;DHT22;21376;50.954;4.716;2024-03-06T05:45:58;2.40;99.90
35240;DHT22;21376;50.954;4.716;2024-03-06T05:48:26;2.20;99.90
35240;DHT22;21376;50.954;4.716;2024-03-06T05:51:01;2.10;99.90
35240;DHT22;21376;50.954;4.716;2024-03-06T05:53:26;2.10;99.90
35240;DHT22;21376;50.954;4.716;2024-03-06T05:55:53;2.10;99.90
35240;DHT22;21376;50.954;4.716;2024-03-06T05:58:20;2.30;99.90
35240;DHT22;21376;50.954;4.716;2024-03-06T06:00:46;2.30;99.90
35240;DHT22;21376;50.954;4.716;2024-03-06T06:03:13;2.20;99.90
35240;DHT22;21376;50.954;4.716;2024-03-06T06:05:42;2.20;99.90
35240;DHT22;21376;50.954;4.716;2024-03-06T06:08:09;2.30;99.90
35240;DHT22;21376;50.954;4.716;2024-03-06T06:10:38;2.20;99.90
35240;DHT22;21376;50.954;4.716;2024-03-06T06:13:07;2.30;99.90
35240;DHT22;21376;50.954;4.716;2024-03-06T06:28:29;2.30;99.90
35240;DHT22;21376;50.954;4.716;2024-03-06T06:30:55;2.40;99.90
35240;DHT22;21376;50.954;4.716;2024-03-06T06:33:24;2.60;99.90
35240;DHT22;21376;50.954;4.716;2024-03-06T06:35:50;2.60;99.90
35240;DHT22;21376;50.954;4.716;2024-03-06T06:38:20;2.50;99.90
35240;DHT22;21376;50.954;4.716;2024-03-06T06:40:49;2.80;99.90
35240;DHT22;21376;50.954;4.716;2024-03-06T06:43:19;2.70;99.90
35240;DHT22;21376;50.954;4.716;2024-03-06T06:49:11;3.00;99.90
35240;DHT22;21376;50.954;4.716;2024-03-06T06:51:39;3.30;99.90
35240;DHT22;21376;50.954;4.716;2024-03-06T06:54:05;3.30;99.90
35240;DHT22;21376;50.954;4.716;2024-03-06T06:56:35;3.20;99.90
35240;DHT22;21376;50.954;4.716;2024-03-06T07:05:31;3.80;99.90
35240;DHT22;21376;50.954;4.716;2024-03-06T07:08:00;4.20;99.90
35240;DHT22;21376;50.954;4.716;2024-03-06T07:10:44;4.30;99.90
35240;DHT22;21376;50.954;4.716;2024-03-06T07:13:10;4.60;99.90
35240;DHT22;21376;50.954;4.716;2024-03-06T07:15:56;4.50;99.90
35240;DHT22;21376;50.954;4.716;2024-03-06T07:18:25;4.60;99.90
35240;DHT22;21376;50.954;4.716;2024-03-06T07:20:51;4.70;99.90
35240;DHT22;21376;50.954;4.716;2024-03-06T07:23:23;5.30;99.90
35240;DHT22;21376;50.954;4.716;2024-03-06T07:25:49;5.40;99.90
35240;DHT22;21376;50.954;4.716;2024-03-06T07:33:33;9.90;99.90
35240;DHT22;21376;50.954;4.716;2024-03-06T07:36:09;10.90;99.90
35240;DHT22;21376;50.954;4.716;2024-03-06T07:38:41;12.20;99.90
35240;DHT22;21376;50.954;4.716;2024-03-06T07:41:09;13.40;99.90
35240;DHT22;21376;50.954;4.716;2024-03-06T07:43:42;14.40;99.90
35240;DHT22;21376;50.954;4.716;2024-03-06T07:49:22;16.30;99.90
35240;DHT22;21376;50.954;4.716;2024-03-06T07:51:51;16.90;99.90
35240;DHT22;21376;50.954;4.716;2024-03-06T07:57:56;17.70;99.90
35240;DHT22;21376;50.954;4.716;2024-03-06T08:00:25;18.00;99.90
35240;DHT22;21376;50.954;4.716;2024-03-06T08:02:55;18.10;99.90
35240;DHT22;21376;50.954;4.716;2024-03-06T08:05:24;17.50;99.90
35240;DHT22;21376;50.954;4.716;2024-03-06T08:07:53;17.00;99.90
35240;DHT22;21376;50.954;4.716;2024-03-06T08:10:22;16.80;99.90
35240;DHT22;21376;50.954;4.716;2024-03-06T08:12:51;17.10;99.90
35240;DHT22;21376;50.954;4.716;2024-03-06T08:15:20;17.70;99.90
35240;DHT22;21376;50.954;4.716;2024-03-06T08:17:50;17.90;99.90
35240;DHT22;21376;50.954;4.716;2024-03-06T08:20:21;18.00;99.90
35240;DHT22;21376;50.954;4.716;2024-03-06T08:22:48;19.00;99.90
35240;DHT22;21376;50.954;4.716;2024-03-06T08:25:21;19.60;99.90
35240;DHT22;21376;50.954;4.716;2024-03-06T08:27:50;19.70;99.90
35240;DHT22;21376;50.954;4.716;2024-03-06T08:30:19;20.20;99.90
35240;DHT22;21376;50.954;4.716;2024-03-06T08:35:14;20.50;99.90
35240;DHT22;21376;50.954;4.716;2024-03-06T08:44:14;19.80;99.90
35240;DHT22;21376;50.954;4.716;2024-03-06T08:46:58;20.00;99.90
35240;DHT22;21376;50.954;4.716;2024-03-06T08:49:25;20.30;99.90
35240;DHT22;21376;50.954;4.716;2024-03-06T08:51:54;21.20;99.90
35240;DHT22;21376;50.954;4.716;2024-03-06T08:57:40;21.10;99.90
35240;DHT22;21376;50.954;4.716;2024-03-06T09:00:08;20.30;99.90
35240;DHT22;21376;50.954;4.716;2024-03-06T09:02:40;20.50;99.90
35240;DHT22;21376;50.954;4.716;2024-03-06T09:05:12;21.20;99.90
35240;DHT22;21376;50.954;4.716;2024-03-06T09:07:41;22.20;99.90
35240;DHT22;21376;50.954;4.716;2024-03-06T09:10:10;22.30;99.90
35240;DHT22;21376;50.954;4.716;2024-03-06T09:12:39;21.70;99.90
35240;DHT22;21376;50.954;4.716;2024-03-06T09:18:01;23.30;99.90
35240;DHT22;21376;50.954;4.716;2024-03-06T09:20:36;23.50;99.90
35240;DHT22;21376;50.954;4.716;2024-03-06T09:23:25;24.00;99.90
35240;DHT22;21376;50.954;4.716;2024-03-06T09:25:55;23.80;99.90
35240;DHT22;21376;50.954;4.716;2024-03-06T09:28:24;24.20;99.90
35240;DHT22;21376;50.954;4.716;2024-03-06T09:30:51;23.50;99.90
35240;DHT22;21376;50.954;4.716;2024-03-06T09:33:21;22.60;99.90
35240;DHT22;21376;50.954;4.716;2024-03-06T09:35:51;22.80;99.90
35240;DHT22;21376;50.954;4.716;2024-03-06T09:38:20;23.30;99.90
35240;DHT22;21376;50.954;4.716;2024-03-06T09:41:09;23.60;99.90
35240;DHT22;21376;50.954;4.716;2024-03-06T09:43:44;24.30;99.90
35240;DHT22;21376;50.954;4.716;2024-03-06T09:46:13;24.00;99.90
35240;DHT22;21376;50.954;4.716;2024-03-06T09:49:01;24.40;99.90
35240;DHT22;21376;50.954;4.716;2024-03-06T09:51:31;25.10;99.90
35240;DHT22;21376;50.954;4.716;2024-03-06T09:53:58;24.60;99.90
35240;DHT22;21376;50.954;4.716;2024-03-06T09:56:27;25.40;99.90
35240;DHT22;21376;50.954;4.716;2024-03-06T09:58:56;24.90;99.90
35240;DHT22;21376;50.954;4.716;2024-03-06T10:01:26;24.40;99.90
35240;DHT22;21376;50.954;4.716;2024-03-06T10:03:55;24.70;99.90
35240;DHT22;21376;50.954;4.716;2024-03-06T10:06:24;24.30;99.60
35240;DHT22;21376;50.954;4.716;2024-03-06T10:08:53;24.30;99.40
35240;DHT22;21376;50.954;4.716;2024-03-06T10:11:44;24.90;99.40
35240;DHT22;21376;50.954;4.716;2024-03-06T10:17:29;24.60;99.90
35240;DHT22;21376;50.954;4.716;2024-03-06T10:19:56;24.20;99.90
35240;DHT22;21376;50.954;4.716;2024-03-06T10:22:33;24.40;99.90
35240;DHT22;21376;50.954;4.716;2024-03-06T10:28:07;25.30;99.20
35240;DHT22;21376;50.954;4.716;2024-03-06T10:30:39;25.90;98.40
35240;DHT22;21376;50.954;4.716;2024-03-06T10:33:09;26.10;98.90
35240;DHT22;21376;50.954;4.716;2024-03-06T10:35:40;25.70;99.10
35240;DHT22;21376;50.954;4.716;2024-03-06T10:38:24;26.10;96.90
35240;DHT22;21376;50.954;4.716;2024-03-06T10:40:55;25.50;97.70
35240;DHT22;21376;50.954;4.716;2024-03-06T10:43:26;25.10;96.80
35240;DHT22;21376;50.954;4.716;2024-03-06T10:46:02;25.20;96.80
35240;DHT22;21376;50.954;4.716;2024-03-06T10:48:31;24.90;96.20
35240;DHT22;21376;50.954;4.716;2024-03-06T10:51:01;23.80;96.60
35240;DHT22;21376;50.954;4.716;2024-03-06T10:53:29;22.50;97.30
35240;DHT22;21376;50.954;4.716;2024-03-06T10:55:57;23.30;98.70
35240;DHT22;21376;50.954;4.716;2024-03-06T10:58:33;24.00;98.20
35240;DHT22;21376;50.954;4.716;2024-03-06T11:01:02;23.90;96.60
35240;DHT22;21376;50.954;4.716;2024-03-06T11:03:29;23.70;96.30
35240;DHT22;21376;50.954;4.716;2024-03-06T11:05:57;22.60;97.10
35240;DHT22;21376;50.954;4.716;2024-03-06T11:08:23;23.20;98.80
35240;DHT22;21376;50.954;4.716;2024-03-06T11:11:20;23.90;96.20
35240;DHT22;21376;50.954;4.716;2024-03-06T11:13:54;24.50;95.90
35240;DHT22;21376;50.954;4.716;2024-03-06T11:16:27;25.00;95.10
35240;DHT22;21376;50.954;4.716;2024-03-06T11:19:10;25.00;96.10
35240;DHT22;21376;50.954;4.716;2024-03-06T11:21:47;26.30;94.40
35240;DHT22;21376;50.954;4.716;2024-03-06T11:24:19;26.60;97.20
35240;DHT22;21376;50.954;4.716;2024-03-06T11:26:54;26.10;97.10
35240;DHT22;21376;50.954;4.716;2024-03-06T11:29:28;25.90;95.40
35240;DHT22;21376;50.954;4.716;2024-03-06T11:32:11;25.40;93.50
35240;DHT22;21376;50.954;4.716;2024-03-06T11:34:46;24.90;95.20
35240;DHT22;21376;50.954;4.716;2024-03-06T11:37:20;24.30;93.60
35240;DHT22;21376;50.954;4.716;2024-03-06T11:39:49;22.60;95.10
35240;DHT22;21376;50.954;4.716;2024-03-06T11:42:18;20.80;96.70
35240;DHT22;21376;50.954;4.716;2024-03-06T11:45:22;20.10;97.70
35240;DHT22;21376;50.954;4.716;2024-03-06T11:48:03;19.00;99.80
35240;DHT22;21376;50.954;4.716;2024-03-06T11:50:52;19.00;98.60
35240;DHT22;21376;50.954;4.716;2024-03-06T11:53:25;18.90;99.90
35240;DHT22;21376;50.954;4.716;2024-03-06T11:55:54;19.00;99.90
35240;DHT22;21376;50.954;4.716;2024-03-06T11:58:29;18.90;99.50
35240;DHT22;21376;50.954;4.716;2024-03-06T12:00:58;18.70;99.90
35240;DHT22;21376;50.954;4.716;2024-03-06T12:03:23;19.90;99.90
35240;DHT22;21376;50.954;4.716;2024-03-06T12:05:51;20.60;99.30
35240;DHT22;21376;50.954;4.716;2024-03-06T12:08:20;20.70;98.30
35240;DHT22;21376;50.954;4.716;2024-03-06T12:10:46;21.00;98.20
35240;DHT22;21376;50.954;4.716;2024-03-06T12:13:32;20.60;97.10
35240;DHT22;21376;50.954;4.716;2024-03-06T12:16:03;19.10;98.10
35240;DHT22;21376;50.954;4.716;2024-03-06T12:18:32;18.70;99.60
35240;DHT22;21376;50.954;4.716;2024-03-06T12:21:04;18.40;99.90
35240;DHT22;21376;50.954;4.716;2024-03-06T12:23:41;17.90;99.90
35240;DHT22;21376;50.954;4.716;2024-03-06T12:26:22;17.90;99.90
35240;DHT22;21376;50.954;4.716;2024-03-06T12:28:51;17.90;99.90
35240;DHT22;21376;50.954;4.716;2024-03-06T12:31:31;17.40;99.90
35240;DHT22;21376;50.954;4.716;2024-03-06T12:33:57;17.10;99.90
35240;DHT22;21376;50.954;4.716;2024-03-06T12:36:30;18.00;99.90
35240;DHT22;21376;50.954;4.716;2024-03-06T12:38:59;18.00;99.90
35240;DHT22;21376;50.954;4.716;2024-03-06T12:41:29;18.20;99.90
35240;DHT22;21376;50.954;4.716;2024-03-06T12:43:58;18.50;99.90
35240;DHT22;21376;50.954;4.716;2024-03-06T12:46:28;18.30;99.00
35240;DHT22;21376;50.954;4.716;2024-03-06T12:49:19;18.30;99.80
35240;DHT22;21376;50.954;4.716;2024-03-06T12:51:48;18.10;99.30
35240;DHT22;21376;50.954;4.716;2024-03-06T12:54:17;17.60;99.90
35240;DHT22;21376;50.954;4.716;2024-03-06T12:56:47;17.50;99.90
35240;DHT22;21376;50.954;4.716;2024-03-06T12:59:16;17.80;99.90
35240;DHT22;21376;50.954;4.716;2024-03-06T13:01:48;17.50;99.90
35240;DHT22;21376;50.954;4.716;2024-03-06T13:04:14;17.40;99.90
35240;DHT22;21376;50.954;4.716;2024-03-06T13:06:54;17.70;99.90
35240;DHT22;21376;50.954;4.716;2024-03-06T13:09:38;17.50;99.90
35240;DHT22;21376;50.954;4.716;2024-03-06T13:12:07;17.80;99.90
35240;DHT22;21376;50.954;4.716;2024-03-06T13:14:36;17.90;99.90
35240;DHT22;21376;50.954;4.716;2024-03-06T13:17:05;18.10;99.90
35240;DHT22;21376;50.954;4.716;2024-03-06T13:19:34;18.50;99.90
35240;DHT22;21376;50.954;4.716;2024-03-06T13:22:02;18.80;99.90
35240;DHT22;21376;50.954;4.716;2024-03-06T13:24:31;18.70;99.90
35240;DHT22;21376;50.954;4.716;2024-03-06T13:27:00;18.70;99.90
35240;DHT22;21376;50.954;4.716;2024-03-06T13:29:26;18.40;99.90
35240;DHT22;21376;50.954;4.716;2024-03-06T13:31:55;17.80;99.90
35240;DHT22;21376;50.954;4.716;2024-03-06T13:34:43;17.60;99.90
35240;DHT22;21376;50.954;4.716;2024-03-06T13:37:22;17.40;99.90
35240;DHT22;21376;50.954;4.716;2024-03-06T13:39:50;17.50;99.90
35240;DHT22;21376;50.954;4.716;2024-03-06T13:42:36;17.20;99.90
35240;DHT22;21376;50.954;4.716;2024-03-06T13:45:05;17.40;99.90
35240;DHT22;21376;50.954;4.716;2024-03-06T13:47:43;17.40;99.90
35240;DHT22;21376;50.954;4.716;2024-03-06T13:50:28;17.60;99.90
35240;DHT22;21376;50.954;4.716;2024-03-06T13:52:55;17.50;99.90
35240;DHT22;21376;50.954;4.716;2024-03-06T13:55:22;17.60;99.90
35240;DHT22;21376;50.954;4.716;2024-03-06T13:57:52;17.90;99.90
35240;DHT22;21376;50.954;4.716;2024-03-06T14:00:23;17.90;99.90
35240;DHT22;21376;50.954;4.716;2024-03-06T14:02:52;17.60;99.90
35240;DHT22;21376;50.954;4.716;2024-03-06T14:05:23;17.10;99.90
35240;DHT22;21376;50.954;4.716;2024-03-06T14:07:56;16.90;99.90
35240;DHT22;21376;50.954;4.716;2024-03-06T14:10:26;17.00;99.90
35240;DHT22;21376;50.954;4.716;2024-03-06T14:13:01;17.00;99.90
35240;DHT22;21376;50.954;4.716;2024-03-06T14:15:36;17.10;99.90
35240;DHT22;21376;50.954;4.716;2024-03-06T14:18:13;17.10;99.90
35240;DHT22;21376;50.954;4.716;2024-03-06T14:20:42;16.70;99.90
35240;DHT22;21376;50.954;4.716;2024-03-06T14:26:26;16.30;99.90
35240;DHT22;21376;50.954;4.716;2024-03-06T14:29:07;16.10;99.90
35240;DHT22;21376;50.954;4.716;2024-03-06T14:31:40;15.90;99.90
35240;DHT22;21376;50.954;4.716;2024-03-06T14:34:06;15.70;99.90
35240;DHT22;21376;50.954;4.716;2024-03-06T14:37:04;15.60;99.90
35240;DHT22;21376;50.954;4.716;2024-03-06T14:39:33;14.90;99.90
35240;DHT22;21376;50.954;4.716;2024-03-06T14:42:02;14.90;99.90
35240;DHT22;21376;50.954;4.716;2024-03-06T14:44:32;14.80;99.90
35240;DHT22;21376;50.954;4.716;2024-03-06T14:47:01;15.10;99.90
35240;DHT22;21376;50.954;4.716;2024-03-06T14:49:30;14.90;99.90
35240;DHT22;21376;50.954;4.716;2024-03-06T14:52:22;14.20;99.90
35240;DHT22;21376;50.954;4.716;2024-03-06T14:54:51;14.20;99.90
35240;DHT22;21376;50.954;4.716;2024-03-06T14:57:18;14.20;99.90
35240;DHT22;21376;50.954;4.716;2024-03-06T15:00:20;14.10;99.90
35240;DHT22;21376;50.954;4.716;2024-03-06T15:02:51;14.00;99.90
35240;DHT22;21376;50.954;4.716;2024-03-06T15:05:18;14.10;99.90
35240;DHT22;21376;50.954;4.716;2024-03-06T15:07:44;14.20;99.90
35240;DHT22;21376;50.954;4.716;2024-03-06T15:10:16;14.10;99.90
35240;DHT22;21376;50.954;4.716;2024-03-06T15:12:56;14.20;99.90
35240;DHT22;21376;50.954;4.716;2024-03-06T15:15:25;13.70;99.90
35240;DHT22;21376;50.954;4.716;2024-03-06T15:17:54;13.50;99.90
35240;DHT22;21376;50.954;4.716;2024-03-06T15:20:26;13.60;99.90
35240;DHT22;21376;50.954;4.716;2024-03-06T15:26:08;13.90;99.90
35240;DHT22;21376;50.954;4.716;2024-03-06T15:28:37;13.90;99.90
35240;DHT22;21376;50.954;4.716;2024-03-06T15:31:06;13.90;99.90
35240;DHT22;21376;50.954;4.716;2024-03-06T15:33:57;13.70;99.90
35240;DHT22;21376;50.954;4.716;2024-03-06T15:36:26;13.70;99.90
35240;DHT22;21376;50.954;4.716;2024-03-06T15:38:54;13.70;99.90
35240;DHT22;21376;50.954;4.716;2024-03-06T15:41:25;13.60;99.90
35240;DHT22;21376;50.954;4.716;2024-03-06T15:43:54;13.50;99.90
35240;DHT22;21376;50.954;4.716;2024-03-06T15:46:26;13.40;99.90
35240;DHT22;21376;50.954;4.716;2024-03-06T15:48:55;13.40;99.90
35240;DHT22;21376;50.954;4.716;2024-03-06T15:51:30;13.50;99.90
35240;DHT22;21376;50.954;4.716;2024-03-06T15:53:58;13.60;99.90
35240;DHT22;21376;50.954;4.716;2024-03-06T15:56:24;13.70;99.90
35240;DHT22;21376;50.954;4.716;2024-03-06T15:58:56;13.60;99.90
35240;DHT22;21376;50.954;4.716;2024-03-06T16:01:22;13.60;99.90
35240;DHT22;21376;50.954;4.716;2024-03-06T16:22:23;13.40;99.90
35240;DHT22;21376;50.954;4.716;2024-03-06T16:24:49;13.30;99.90
35240;DHT22;21376;50.954;4.716;2024-03-06T16:27:17;13.40;99.90
35240;DHT22;21376;50.954;4.716;2024-03-06T16:29:43;13.40;99.90
35240;DHT22;21376;50.954;4.716;2024-03-06T16:32:09;13.20;99.90
35240;DHT22;21376;50.954;4.716;2024-03-06T16:34:38;13.10;99.90
35240;DHT22;21376;50.954;4.716;2024-03-06T16:37:06;12.90;99.90
35240;DHT22;21376;50.954;4.716;2024-03-06T16:39:34;12.80;99.90
35240;DHT22;21376;50.954;4.716;2024-03-06T16:42:16;12.80;99.90
35240;DHT22;21376;50.954;4.716;2024-03-06T16:48:06;12.50;99.90
35240;DHT22;21376;50.954;4.716;2024-03-06T16:56:48;12.60;99.90
35240;DHT22;21376;50.954;4.716;2024-03-06T16:59:17;12.60;99.90
35240;DHT22;21376;50.954;4.716;2024-03-06T17:02:17;12.60;99.90
35240;DHT22;21376;50.954;4.716;2024-03-06T17:04:46;12.60;99.90
35240;DHT22;21376;50.954;4.716;2024-03-06T17:07:15;12.30;99.90
35240;DHT22;21376;50.954;4.716;2024-03-06T17:12:52;12.00;99.90
35240;DHT22;21376;50.954;4.716;2024-03-06T17:15:30;11.90;99.90
35240;DHT22;21376;50.954;4.716;2024-03-06T17:17:59;11.60;99.90
35240;DHT22;21376;50.954;4.716;2024-03-06T17:20:46;11.40;99.90
35240;DHT22;21376;50.954;4.716;2024-03-06T17:23:13;11.20;99.90
35240;DHT22;21376;50.954;4.716;2024-03-06T17:25:41;11.10;99.90
35240;DHT22;21376;50.954;4.716;2024-03-06T17:28:08;11.00;99.90
35240;DHT22;21376;50.954;4.716;2024-03-06T17:30:36;10.90;99.90
35240;DHT22;21376;50.954;4.716;2024-03-06T17:33:05;10.80;99.90
35240;DHT22;21376;50.954;4.716;2024-03-06T17:35:33;10.70;99.90
35240;DHT22;21376;50.954;4.716;2024-03-06T17:38:03;10.60;99.90
35240;DHT22;21376;50.954;4.716;2024-03-06T17:40:31;10.30;99.90
35240;DHT22;21376;50.954;4.716;2024-03-06T17:43:00;10.20;99.90
35240;DHT22;21376;50.954;4.716;2024-03-06T17:45:29;10.20;99.90
35240;DHT22;21376;50.954;4.716;2024-03-06T17:47:58;10.00;99.90
35240;DHT22;21376;50.954;4.716;2024-03-06T17:50:27;9.90;99.90
35240;DHT22;21376;50.954;4.716;2024-03-06T17:53:22;9.80;99.90
35240;DHT22;21376;50.954;4.716;2024-03-06T17:55:50;9.70;99.90
35240;DHT22;21376;50.954;4.716;2024-03-06T17:58:19;9.60;99.90
35240;DHT22;21376;50.954;4.716;2024-03-06T18:00:45;9.50;99.90
35240;DHT22;21376;50.954;4.716;2024-03-06T18:03:16;9.40;99.90
35240;DHT22;21376;50.954;4.716;2024-03-06T18:05:45;9.20;99.90
35240;DHT22;21376;50.954;4.716;2024-03-06T18:08:12;9.20;99.90